Americus, Kansas
Current Conditions -  °F | °C
As of 10:53 AM on Monday 22 Dec 2014 (Local Time) from KEMP Reporting Station
Overcast Overcast  
Wind Chill:   Ceiling: 500
Heat Index:   Visibility: 9mi
Dew Point:   Wind: 9mph
Humidity: 100%   Direction: 200°SSW
Pressure: 29.54"   Gusts: NA
Location:  38.51°N, 96.26°W
Report Text: KEMP 221653Z AUTO 20008KT 9SM OVC005 07/07 A2954 RMK AO2 RAE1559 SLP008 P0000 T00670067
Loading
Personal Weather Stations






























Interactive Weather Map New forecast layout! Learn more

10-Day Weather Forecast

Advertisements
Track Severe Weather on mobile